sensor_id;sensor_type;location;lat;lon;timestamp;pressure;altitude;pressure_sealevel;temperature;humidity
46724;BME280;32463;48.298;11.620;2023-04-04T00:01:41;97003.56;;;-0.88;93.41
46724;BME280;32463;48.298;11.620;2023-04-04T00:04:08;97009.28;;;-0.83;92.49
46724;BME280;32463;48.298;11.620;2023-04-04T00:06:34;97000.00;;;-0.84;93.04
46724;BME280;32463;48.298;11.620;2023-04-04T00:09:01;96998.56;;;-0.89;93.49
46724;BME280;32463;48.298;11.620;2023-04-04T00:11:27;97001.16;;;-0.91;93.78
46724;BME280;32463;48.298;11.620;2023-04-04T00:13:54;96994.28;;;-0.89;93.44
46724;BME280;32463;48.298;11.620;2023-04-04T00:16:20;96997.91;;;-0.93;94.14
46724;BME280;32463;48.298;11.620;2023-04-04T00:18:47;96994.88;;;-1.01;95.21
46724;BME280;32463;48.298;11.620;2023-04-04T00:21:13;96989.38;;;-1.11;95.52
46724;BME280;32463;48.298;11.620;2023-04-04T00:23:40;96988.69;;;-1.14;95.32
46724;BME280;32463;48.298;11.620;2023-04-04T00:26:06;96985.53;;;-1.19;96.01
46724;BME280;32463;48.298;11.620;2023-04-04T00:28:32;96982.53;;;-1.27;96.56
46724;BME280;32463;48.298;11.620;2023-04-04T00:30:59;96990.31;;;-1.30;97.80
46724;BME280;32463;48.298;11.620;2023-04-04T00:33:26;96982.97;;;-1.37;98.00
46724;BME280;32463;48.298;11.620;2023-04-04T00:35:52;96982.97;;;-1.37;98.17
46724;BME280;32463;48.298;11.620;2023-04-04T00:38:19;96988.19;;;-1.40;99.29
46724;BME280;32463;48.298;11.620;2023-04-04T00:40:46;96979.78;;;-1.42;99.61
46724;BME280;32463;48.298;11.620;2023-04-04T00:43:14;96971.81;;;-1.53;100.00
46724;BME280;32463;48.298;11.620;2023-04-04T00:45:42;96977.19;;;-1.59;100.00
46724;BME280;32463;48.298;11.620;2023-04-04T00:48:08;96975.56;;;-1.60;100.00
46724;BME280;32463;48.298;11.620;2023-04-04T00:50:35;96971.63;;;-1.67;100.00
46724;BME280;32463;48.298;11.620;2023-04-04T00:53:01;96966.06;;;-1.75;100.00
46724;BME280;32463;48.298;11.620;2023-04-04T00:55:28;96960.63;;;-1.86;100.00
46724;BME280;32463;48.298;11.620;2023-04-04T00:57:54;96970.19;;;-1.91;100.00
46724;BME280;32463;48.298;11.620;2023-04-04T01:00:21;96965.22;;;-1.94;100.00
46724;BME280;32463;48.298;11.620;2023-04-04T01:02:49;96964.47;;;-1.96;100.00
46724;BME280;32463;48.298;11.620;2023-04-04T01:05:15;96969.81;;;-2.03;100.00
46724;BME280;32463;48.298;11.620;2023-04-04T01:07:42;96955.00;;;-2.13;100.00
46724;BME280;32463;48.298;11.620;2023-04-04T01:10:09;96962.78;;;-2.16;100.00
46724;BME280;32463;48.298;11.620;2023-04-04T01:12:36;96961.34;;;-2.22;100.00
46724;BME280;32463;48.298;11.620;2023-04-04T01:15:02;96962.53;;;-2.30;100.00
46724;BME280;32463;48.298;11.620;2023-04-04T01:17:29;96955.38;;;-2.41;100.00
46724;BME280;32463;48.298;11.620;2023-04-04T01:20:01;96955.25;;;-2.38;100.00
46724;BME280;32463;48.298;11.620;2023-04-04T01:22:30;96952.84;;;-2.41;100.00
46724;BME280;32463;48.298;11.620;2023-04-04T01:24:58;96954.00;;;-2.48;100.00
46724;BME280;32463;48.298;11.620;2023-04-04T01:27:24;96950.31;;;-2.61;100.00
46724;BME280;32463;48.298;11.620;2023-04-04T01:29:51;96952.84;;;-2.61;100.00
46724;BME280;32463;48.298;11.620;2023-04-04T01:32:19;96945.53;;;-2.69;100.00
46724;BME280;32463;48.298;11.620;2023-04-04T01:34:57;96945.53;;;-2.69;100.00
46724;BME280;32463;48.298;11.620;2023-04-04T01:40:17;96938.25;;;-2.77;100.00
46724;BME280;32463;48.298;11.620;2023-04-04T01:42:46;96933.56;;;-2.86;100.00
46724;BME280;32463;48.298;11.620;2023-04-04T01:45:13;96929.75;;;-2.76;100.00
46724;BME280;32463;48.298;11.620;2023-04-04T01:47:40;96936.84;;;-2.84;100.00
46724;BME280;32463;48.298;11.620;2023-04-04T01:50:08;96929.19;;;-2.82;100.00
46724;BME280;32463;48.298;11.620;2023-04-04T01:52:35;96931.66;;;-2.81;100.00
46724;BME280;32463;48.298;11.620;2023-04-04T01:55:02;96938.75;;;-2.89;100.00
46724;BME280;32463;48.298;11.620;2023-04-04T01:57:29;96933.78;;;-2.92;100.00
46724;BME280;32463;48.298;11.620;2023-04-04T01:59:56;96923.06;;;-2.98;100.00
46724;BME280;32463;48.298;11.620;2023-04-04T02:02:22;96931.50;;;-2.98;100.00
46724;BME280;32463;48.298;11.620;2023-04-04T02:04:50;96935.56;;;-2.94;100.00
46724;BME280;32463;48.298;11.620;2023-04-04T02:07:16;96928.06;;;-2.97;100.00
46724;BME280;32463;48.298;11.620;2023-04-04T02:09:43;96937.56;;;-3.02;100.00
46724;BME280;32463;48.298;11.620;2023-04-04T02:12:10;96934.97;;;-3.00;100.00
46724;BME280;32463;48.298;11.620;2023-04-04T02:14:36;96935.81;;;-3.00;100.00
46724;BME280;32463;48.298;11.620;2023-04-04T02:17:03;96934.44;;;-3.07;100.00
46724;BME280;32463;48.298;11.620;2023-04-04T02:19:30;96930.34;;;-3.11;100.00
46724;BME280;32463;48.298;11.620;2023-04-04T02:21:56;96925.47;;;-3.16;100.00
46724;BME280;32463;48.298;11.620;2023-04-04T02:24:23;96926.28;;;-3.15;100.00
46724;BME280;32463;48.298;11.620;2023-04-04T02:26:49;96926.41;;;-3.18;100.00
46724;BME280;32463;48.298;11.620;2023-04-04T02:29:16;96928.06;;;-3.17;100.00
46724;BME280;32463;48.298;11.620;2023-04-04T02:31:43;96923.28;;;-3.25;100.00
46724;BME280;32463;48.298;11.620;2023-04-04T02:34:10;96923.22;;;-3.23;100.00
46724;BME280;32463;48.298;11.620;2023-04-04T02:36:36;96922.41;;;-3.24;100.00
46724;BME280;32463;48.298;11.620;2023-04-04T02:39:03;96915.97;;;-3.32;100.00
46724;BME280;32463;48.298;11.620;2023-04-04T02:41:40;96920.03;;;-3.28;100.00
46724;BME280;32463;48.298;11.620;2023-04-04T02:44:06;96916.50;;;-3.24;100.00
46724;BME280;32463;48.298;11.620;2023-04-04T02:46:34;96920.03;;;-3.28;100.00
46724;BME280;32463;48.298;11.620;2023-04-04T02:49:00;96921.25;;;-3.37;100.00
46724;BME280;32463;48.298;11.620;2023-04-04T02:51:28;96922.41;;;-3.46;100.00
46724;BME280;32463;48.298;11.620;2023-04-04T02:53:55;96918.72;;;-3.37;100.00
46724;BME280;32463;48.298;11.620;2023-04-04T02:56:21;96927.00;;;-3.33;100.00
46724;BME280;32463;48.298;11.620;2023-04-04T02:58:48;96916.22;;;-3.38;100.00
46724;BME280;32463;48.298;11.620;2023-04-04T03:01:14;96915.19;;;-3.34;100.00
46724;BME280;32463;48.298;11.620;2023-04-04T03:03:40;96917.94;;;-3.39;100.00
46724;BME280;32463;48.298;11.620;2023-04-04T03:06:07;96913.81;;;-3.42;100.00
46724;BME280;32463;48.298;11.620;2023-04-04T03:08:34;96915.47;;;-3.41;100.00
46724;BME280;32463;48.298;11.620;2023-04-04T03:11:01;96908.47;;;-3.35;100.00
46724;BME280;32463;48.298;11.620;2023-04-04T03:13:28;96916.34;;;-3.42;100.00
46724;BME280;32463;48.298;11.620;2023-04-04T03:16:02;96917.22;;;-3.43;100.00
46724;BME280;32463;48.298;11.620;2023-04-04T03:18:30;96916.63;;;-3.49;100.00
46724;BME280;32463;48.298;11.620;2023-04-04T03:21:00;96913.81;;;-3.42;100.00
46724;BME280;32463;48.298;11.620;2023-04-04T03:23:27;96915.63;;;-3.45;100.00
46724;BME280;32463;48.298;11.620;2023-04-04T03:25:53;96914.94;;;-3.49;100.00
46724;BME280;32463;48.298;11.620;2023-04-04T03:28:21;96916.41;;;-3.43;100.00
46724;BME280;32463;48.298;11.620;2023-04-04T03:30:47;96914.81;;;-3.46;100.00
46724;BME280;32463;48.298;11.620;2023-04-04T03:33:14;96918.88;;;-3.42;100.00
46724;BME280;32463;48.298;11.620;2023-04-04T03:35:41;96915.47;;;-3.41;100.00
46724;BME280;32463;48.298;11.620;2023-04-04T03:38:08;96915.81;;;-3.50;100.00
46724;BME280;32463;48.298;11.620;2023-04-04T03:40:35;96917.81;;;-3.58;100.00
46724;BME280;32463;48.298;11.620;2023-04-04T03:43:01;96914.50;;;-3.60;100.00
46724;BME280;32463;48.298;11.620;2023-04-04T03:45:28;96926.16;;;-3.56;100.00
46724;BME280;32463;48.298;11.620;2023-04-04T03:47:55;96927.81;;;-3.55;100.00
46724;BME280;32463;48.298;11.620;2023-04-04T03:50:21;96925.34;;;-3.56;100.00
46724;BME280;32463;48.298;11.620;2023-04-04T03:52:48;96924.28;;;-3.51;100.00
46724;BME280;32463;48.298;11.620;2023-04-04T03:55:14;96926.41;;;-3.62;100.00
46724;BME280;32463;48.298;11.620;2023-04-04T03:57:40;96934.88;;;-3.63;100.00
46724;BME280;32463;48.298;11.620;2023-04-04T04:00:07;96924.81;;;-3.64;100.00
46724;BME280;32463;48.298;11.620;2023-04-04T04:02:34;96931.25;;;-3.56;100.00
46724;BME280;32463;48.298;11.620;2023-04-04T04:05:01;96932.28;;;-3.61;100.00
46724;BME280;32463;48.298;11.620;2023-04-04T04:07:27;96923.25;;;-3.67;100.00
46724;BME280;32463;48.298;11.620;2023-04-04T04:09:54;96929.81;;;-3.63;100.00
46724;BME280;32463;48.298;11.620;2023-04-04T04:12:20;96931.34;;;-3.59;100.00
46724;BME280;32463;48.298;11.620;2023-04-04T04:14:47;96930.28;;;-3.75;100.00
46724;BME280;32463;48.298;11.620;2023-04-04T04:17:14;96941.41;;;-3.79;100.00
46724;BME280;32463;48.298;11.620;2023-04-04T04:19:40;96940.88;;;-3.87;100.00
46724;BME280;32463;48.298;11.620;2023-04-04T04:22:07;96933.59;;;-3.73;100.00
46724;BME280;32463;48.298;11.620;2023-04-04T04:24:34;96937.22;;;-3.80;100.00
46724;BME280;32463;48.298;11.620;2023-04-04T04:27:00;96943.72;;;-3.73;100.00
46724;BME280;32463;48.298;11.620;2023-04-04T04:29:27;96936.03;;;-3.70;100.00
46724;BME280;32463;48.298;11.620;2023-04-04T04:31:53;96937.53;;;-3.66;100.00
46724;BME280;32463;48.298;11.620;2023-04-04T04:34:20;96936.66;;;-3.65;100.00
46724;BME280;32463;48.298;11.620;2023-04-04T04:36:46;96942.47;;;-3.63;100.00
46724;BME280;32463;48.298;11.620;2023-04-04T04:39:12;96941.84;;;-3.68;100.00
46724;BME280;32463;48.298;11.620;2023-04-04T04:41:39;96936.78;;;-3.68;100.00
46724;BME280;32463;48.298;11.620;2023-04-04T04:44:05;96938.13;;;-3.59;100.00
46724;BME280;32463;48.298;11.620;2023-04-04T04:46:32;96937.97;;;-3.55;100.00
46724;BME280;32463;48.298;11.620;2023-04-04T04:48:58;96934.44;;;-3.51;100.00
46724;BME280;32463;48.298;11.620;2023-04-04T04:51:24;96934.97;;;-3.43;100.00
46724;BME280;32463;48.298;11.620;2023-04-04T04:53:51;96942.47;;;-3.40;100.00
46724;BME280;32463;48.298;11.620;2023-04-04T04:56:18;96940.50;;;-3.33;100.00
46724;BME280;32463;48.298;11.620;2023-04-04T04:58:44;96940.56;;;-3.34;100.00
46724;BME280;32463;48.298;11.620;2023-04-04T05:01:12;96945.88;;;-3.41;100.00
46724;BME280;32463;48.298;11.620;2023-04-04T05:03:39;96946.09;;;-3.47;100.00
46724;BME280;32463;48.298;11.620;2023-04-04T05:06:05;96939.16;;;-3.42;100.00
46724;BME280;32463;48.298;11.620;2023-04-04T05:08:32;96942.47;;;-3.40;100.00
46724;BME280;32463;48.298;11.620;2023-04-04T05:10:58;96948.22;;;-3.36;100.00
46724;BME280;32463;48.298;11.620;2023-04-04T05:13:25;96935.63;;;-3.37;100.00
46724;BME280;32463;48.298;11.620;2023-04-04T05:15:51;96946.34;;;-3.31;100.00
46724;BME280;32463;48.298;11.620;2023-04-04T05:18:18;96953.75;;;-3.26;100.00
46724;BME280;32463;48.298;11.620;2023-04-04T05:20:58;96957.72;;;-3.19;100.00
46724;BME280;32463;48.298;11.620;2023-04-04T05:23:24;96960.97;;;-3.16;100.00
46724;BME280;32463;48.298;11.620;2023-04-04T05:25:51;96960.03;;;-3.13;100.00
46724;BME280;32463;48.298;11.620;2023-04-04T05:28:19;96965.84;;;-3.11;100.00
46724;BME280;32463;48.298;11.620;2023-04-04T05:30:46;96966.25;;;-3.00;100.00
46724;BME280;32463;48.298;11.620;2023-04-04T05:33:12;96957.63;;;-2.96;100.00
46724;BME280;32463;48.298;11.620;2023-04-04T05:35:38;96966.53;;;-2.86;100.00
46724;BME280;32463;48.298;11.620;2023-04-04T05:38:06;96958.69;;;-2.80;100.00
46724;BME280;32463;48.298;11.620;2023-04-04T05:40:32;96965.13;;;-2.73;100.00
46724;BME280;32463;48.298;11.620;2023-04-04T05:42:59;96969.84;;;-2.63;100.00
46724;BME280;32463;48.298;11.620;2023-04-04T05:45:28;96968.66;;;-2.55;100.00
46724;BME280;32463;48.298;11.620;2023-04-04T05:47:55;96963.44;;;-2.52;100.00
46724;BME280;32463;48.298;11.620;2023-04-04T05:50:22;96962.44;;;-2.48;100.00
46724;BME280;32463;48.298;11.620;2023-04-04T05:52:52;96973.06;;;-2.40;100.00
46724;BME280;32463;48.298;11.620;2023-04-04T05:55:18;96965.34;;;-2.37;100.00
46724;BME280;32463;48.298;11.620;2023-04-04T05:57:49;96968.06;;;-2.21;100.00
46724;BME280;32463;48.298;11.620;2023-04-04T06:00:18;96968.69;;;-2.16;100.00
46724;BME280;32463;48.298;11.620;2023-04-04T06:02:45;96963.97;;;-2.05;100.00
46724;BME280;32463;48.298;11.620;2023-04-04T06:05:11;96966.88;;;-1.93;100.00
46724;BME280;32463;48.298;11.620;2023-04-04T06:07:38;96961.41;;;-1.84;100.00
46724;BME280;32463;48.298;11.620;2023-04-04T06:10:05;96962.88;;;-1.80;100.00
46724;BME280;32463;48.298;11.620;2023-04-04T06:12:31;96960.84;;;-1.72;100.00
46724;BME280;32463;48.298;11.620;2023-04-04T06:14:58;96958.03;;;-1.66;100.00
46724;BME280;32463;48.298;11.620;2023-04-04T06:17:24;96965.13;;;-1.54;100.00
46724;BME280;32463;48.298;11.620;2023-04-04T06:19:50;96959.31;;;-1.39;99.98
46724;BME280;32463;48.298;11.620;2023-04-04T06:22:19;96968.03;;;-1.25;97.75
46724;BME280;32463;48.298;11.620;2023-04-04T06:24:46;96957.06;;;-1.09;98.04
46724;BME280;32463;48.298;11.620;2023-04-04T06:27:12;96964.47;;;-1.04;94.02
46724;BME280;32463;48.298;11.620;2023-04-04T06:29:38;96966.22;;;-0.87;94.83
46724;BME280;32463;48.298;11.620;2023-04-04T06:32:05;96962.28;;;-0.93;92.66
46724;BME280;32463;48.298;11.620;2023-04-04T06:34:32;96963.59;;;-0.86;93.00
46724;BME280;32463;48.298;11.620;2023-04-04T06:36:58;96951.47;;;-0.81;91.10
46724;BME280;32463;48.298;11.620;2023-04-04T06:39:24;96963.22;;;-0.61;91.08
46724;BME280;32463;48.298;11.620;2023-04-04T06:41:51;96974.84;;;-0.55;90.30
46724;BME280;32463;48.298;11.620;2023-04-04T06:44:17;96956.66;;;-0.48;88.07
46724;BME280;32463;48.298;11.620;2023-04-04T06:46:44;96957.09;;;-0.40;87.67
46724;BME280;32463;48.298;11.620;2023-04-04T06:49:10;96960.13;;;-0.16;86.13
46724;BME280;32463;48.298;11.620;2023-04-04T06:51:39;96961.19;;;-0.20;84.29
46724;BME280;32463;48.298;11.620;2023-04-04T06:54:06;96957.81;;;-0.20;83.15
46724;BME280;32463;48.298;11.620;2023-04-04T06:56:32;96952.25;;;-0.11;82.06
46724;BME280;32463;48.298;11.620;2023-04-04T06:58:59;96950.84;;;-0.17;82.18
46724;BME280;32463;48.298;11.620;2023-04-04T07:01:25;96956.91;;;0.14;79.62
46724;BME280;32463;48.298;11.620;2023-04-04T07:03:52;96950.91;;;-0.18;80.20
46724;BME280;32463;48.298;11.620;2023-04-04T07:06:21;96947.09;;;-0.10;80.07
46724;BME280;32463;48.298;11.620;2023-04-04T07:08:49;96954.09;;;0.03;79.61
46724;BME280;32463;48.298;11.620;2023-04-04T07:11:15;96950.00;;;0.16;79.78
46724;BME280;32463;48.298;11.620;2023-04-04T07:13:41;96960.13;;;0.33;77.77
46724;BME280;32463;48.298;11.620;2023-04-04T07:16:08;96948.09;;;0.52;76.79
46724;BME280;32463;48.298;11.620;2023-04-04T07:18:35;96946.59;;;0.48;74.21
46724;BME280;32463;48.298;11.620;2023-04-04T07:21:02;96959.50;;;0.45;73.01
46724;BME280;32463;48.298;11.620;2023-04-04T07:23:28;96957.53;;;0.50;74.48
46724;BME280;32463;48.298;11.620;2023-04-04T07:25:55;96957.63;;;0.49;73.63
46724;BME280;32463;48.298;11.620;2023-04-04T07:28:22;96942.66;;;0.58;73.26
46724;BME280;32463;48.298;11.620;2023-04-04T07:30:48;96946.59;;;0.80;70.92
46724;BME280;32463;48.298;11.620;2023-04-04T07:33:15;96956.59;;;0.98;70.89
46724;BME280;32463;48.298;11.620;2023-04-04T07:35:41;96950.00;;;1.10;69.89
46724;BME280;32463;48.298;11.620;2023-04-04T07:38:08;96950.59;;;1.29;68.10
46724;BME280;32463;48.298;11.620;2023-04-04T07:40:34;96948.09;;;1.14;66.79
46724;BME280;32463;48.298;11.620;2023-04-04T07:43:01;96942.41;;;1.09;66.17
46724;BME280;32463;48.298;11.620;2023-04-04T07:45:27;96950.84;;;0.95;66.12
46724;BME280;32463;48.298;11.620;2023-04-04T07:47:54;96942.81;;;1.17;66.85
46724;BME280;32463;48.298;11.620;2023-04-04T07:50:21;96943.84;;;1.28;65.30
46724;BME280;32463;48.298;11.620;2023-04-04T07:52:50;96941.69;;;1.37;64.85
46724;BME280;32463;48.298;11.620;2023-04-04T07:55:18;96945.56;;;1.58;64.49
46724;BME280;32463;48.298;11.620;2023-04-04T07:57:45;96949.94;;;1.56;62.00
46724;BME280;32463;48.298;11.620;2023-04-04T08:00:12;96945.22;;;1.64;61.46
46724;BME280;32463;48.298;11.620;2023-04-04T08:02:38;96934.28;;;1.76;61.86
46724;BME280;32463;48.298;11.620;2023-04-04T08:05:05;96951.72;;;1.84;60.68
46724;BME280;32463;48.298;11.620;2023-04-04T08:07:32;96952.69;;;1.53;58.40
46724;BME280;32463;48.298;11.620;2023-04-04T08:09:58;96947.19;;;1.45;58.20
46724;BME280;32463;48.298;11.620;2023-04-04T08:12:25;96945.41;;;1.89;58.93
46724;BME280;32463;48.298;11.620;2023-04-04T08:14:52;96947.88;;;2.19;60.15
46724;BME280;32463;48.298;11.620;2023-04-04T08:17:18;96945.06;;;2.24;58.75
46724;BME280;32463;48.298;11.620;2023-04-04T08:19:45;96943.69;;;2.32;58.47
46724;BME280;32463;48.298;11.620;2023-04-04T08:22:11;96946.16;;;2.20;56.37
46724;BME280;32463;48.298;11.620;2023-04-04T08:24:38;96939.59;;;2.01;56.53
46724;BME280;32463;48.298;11.620;2023-04-04T08:27:04;96941.22;;;2.02;56.13
46724;BME280;32463;48.298;11.620;2023-04-04T08:29:31;96941.75;;;2.22;54.86
46724;BME280;32463;48.298;11.620;2023-04-04T08:31:58;96942.13;;;2.44;53.70
46724;BME280;32463;48.298;11.620;2023-04-04T08:34:25;96933.41;;;2.47;54.93
46724;BME280;32463;48.298;11.620;2023-04-04T08:36:52;96939.78;;;2.68;52.60
46724;BME280;32463;48.298;11.620;2023-04-04T08:39:19;96948.63;;;2.77;51.89
46724;BME280;32463;48.298;11.620;2023-04-04T08:41:45;96948.31;;;2.54;52.14
46724;BME280;32463;48.298;11.620;2023-04-04T08:44:16;96945.38;;;2.46;52.02
46724;BME280;32463;48.298;11.620;2023-04-04T08:46:44;96941.06;;;2.61;51.84
46724;BME280;32463;48.298;11.620;2023-04-04T08:49:13;96942.56;;;2.78;49.90
46724;BME280;32463;48.298;11.620;2023-04-04T08:51:42;96944.66;;;3.12;49.32
46724;BME280;32463;48.298;11.620;2023-04-04T08:54:12;96936.41;;;2.94;48.94
46724;BME280;32463;48.298;11.620;2023-04-04T08:56:40;96942.09;;;2.85;50.74
46724;BME280;32463;48.298;11.620;2023-04-04T08:59:06;96941.88;;;3.67;50.14
46724;BME280;32463;48.298;11.620;2023-04-04T09:01:36;96939.00;;;3.34;49.81
46724;BME280;32463;48.298;11.620;2023-04-04T09:04:03;96939.97;;;3.96;49.13
46724;BME280;32463;48.298;11.620;2023-04-04T09:06:29;96932.47;;;4.06;47.53
46724;BME280;32463;48.298;11.620;2023-04-04T09:08:57;96943.34;;;3.59;48.71
46724;BME280;32463;48.298;11.620;2023-04-04T09:11:25;96944.66;;;3.52;49.11
46724;BME280;32463;48.298;11.620;2023-04-04T09:13:53;96944.19;;;3.97;48.50
46724;BME280;32463;48.298;11.620;2023-04-04T09:16:21;96943.25;;;3.60;47.86
46724;BME280;32463;48.298;11.620;2023-04-04T09:18:48;96945.56;;;3.51;47.70
46724;BME280;32463;48.298;11.620;2023-04-04T09:21:18;96945.63;;;2.97;47.97
46724;BME280;32463;48.298;11.620;2023-04-04T09:23:45;96942.56;;;2.78;49.12
46724;BME280;32463;48.298;11.620;2023-04-04T09:26:12;96952.59;;;2.95;48.61
46724;BME280;32463;48.298;11.620;2023-04-04T09:28:38;96949.00;;;2.70;49.54
46724;BME280;32463;48.298;11.620;2023-04-04T09:31:07;96948.03;;;2.86;50.21
46724;BME280;32463;48.298;11.620;2023-04-04T09:33:34;96947.69;;;2.78;49.99
46724;BME280;32463;48.298;11.620;2023-04-04T09:36:04;96954.56;;;3.31;49.88
46724;BME280;32463;48.298;11.620;2023-04-04T09:38:35;96952.25;;;3.14;49.54
46724;BME280;32463;48.298;11.620;2023-04-04T09:41:06;96951.22;;;3.16;49.16
46724;BME280;32463;48.298;11.620;2023-04-04T09:43:33;96956.16;;;3.19;47.97
46724;BME280;32463;48.298;11.620;2023-04-04T09:46:02;96952.78;;;2.92;48.26
46724;BME280;32463;48.298;11.620;2023-04-04T09:48:30;96960.91;;;3.25;48.87
46724;BME280;32463;48.298;11.620;2023-04-04T09:50:57;96949.59;;;3.15;47.84
46724;BME280;32463;48.298;11.620;2023-04-04T09:53:24;96957.19;;;3.17;48.30
46724;BME280;32463;48.298;11.620;2023-04-04T09:55:52;96953.69;;;3.18;48.63
46724;BME280;32463;48.298;11.620;2023-04-04T09:58:25;96952.69;;;3.20;47.89
46724;BME280;32463;48.298;11.620;2023-04-04T10:00:54;96952.75;;;3.71;47.85
46724;BME280;32463;48.298;11.620;2023-04-04T10:03:22;96949.31;;;3.85;46.99
46724;BME280;32463;48.298;11.620;2023-04-04T10:06:08;96953.56;;;4.35;45.69
46724;BME280;32463;48.298;11.620;2023-04-04T10:08:38;96960.25;;;3.74;45.31
46724;BME280;32463;48.298;11.620;2023-04-04T10:11:05;96949.88;;;3.50;45.80
46724;BME280;32463;48.298;11.620;2023-04-04T10:13:36;96965.94;;;3.27;47.25
46724;BME280;32463;48.298;11.620;2023-04-04T10:16:05;96950.38;;;3.43;46.63
46724;BME280;32463;48.298;11.620;2023-04-04T10:18:33;96948.84;;;4.42;45.84
46724;BME280;32463;48.298;11.620;2023-04-04T10:21:02;96945.22;;;5.17;45.88
46724;BME280;32463;48.298;11.620;2023-04-04T10:23:29;96945.03;;;4.84;42.75
46724;BME280;32463;48.298;11.620;2023-04-04T10:25:57;96960.41;;;4.96;43.19
46724;BME280;32463;48.298;11.620;2023-04-04T10:28:24;96961.41;;;5.06;42.55
46724;BME280;32463;48.298;11.620;2023-04-04T10:31:21;96947.22;;;5.49;41.00
46724;BME280;32463;48.298;11.620;2023-04-04T10:34:19;96940.28;;;4.90;42.62
46724;BME280;32463;48.298;11.620;2023-04-04T10:36:52;96940.63;;;4.86;43.71
46724;BME280;32463;48.298;11.620;2023-04-04T10:41:50;96929.28;;;6.71;40.31
46724;BME280;32463;48.298;11.620;2023-04-04T10:44:33;96935.00;;;7.71;41.85
46724;BME280;32463;48.298;11.620;2023-04-04T10:47:14;96933.63;;;6.71;39.81
46724;BME280;32463;48.298;11.620;2023-04-04T10:49:46;96930.78;;;7.91;39.09
46724;BME280;32463;48.298;11.620;2023-04-04T10:52:15;96934.53;;;7.24;39.52
46724;BME280;32463;48.298;11.620;2023-04-04T10:54:43;96933.97;;;7.09;38.22
46724;BME280;32463;48.298;11.620;2023-04-04T10:57:11;96948.16;;;6.61;39.22
46724;BME280;32463;48.298;11.620;2023-04-04T10:59:59;96932.69;;;6.50;39.93
46724;BME280;32463;48.298;11.620;2023-04-04T11:07:48;96918.91;;;8.09;38.12
46724;BME280;32463;48.298;11.620;2023-04-04T11:10:55;96922.78;;;7.31;37.39
46724;BME280;32463;48.298;11.620;2023-04-04T11:13:16;96924.69;;;8.22;39.25
46724;BME280;32463;48.298;11.620;2023-04-04T11:21:15;96911.44;;;7.43;38.09
46724;BME280;32463;48.298;11.620;2023-04-04T11:26:33;96916.19;;;6.63;39.28
46724;BME280;32463;48.298;11.620;2023-04-04T11:29:04;96911.94;;;6.73;40.65
46724;BME280;32463;48.298;11.620;2023-04-04T11:31:44;96899.28;;;8.67;40.33
46724;BME280;32463;48.298;11.620;2023-04-04T11:34:12;96898.69;;;7.63;38.67
46724;BME280;32463;48.298;11.620;2023-04-04T11:47:17;96892.53;;;8.05;37.52
46724;BME280;32463;48.298;11.620;2023-04-04T11:49:45;96907.09;;;7.23;39.33
46724;BME280;32463;48.298;11.620;2023-04-04T11:52:13;96908.50;;;5.96;41.71
46724;BME280;32463;48.298;11.620;2023-04-04T11:54:44;96894.19;;;6.59;40.97
46724;BME280;32463;48.298;11.620;2023-04-04T11:57:14;96892.78;;;6.55;39.63
46724;BME280;32463;48.298;11.620;2023-04-04T11:59:43;96905.06;;;5.73;40.41
46724;BME280;32463;48.298;11.620;2023-04-04T12:02:12;96891.19;;;6.10;40.11
46724;BME280;32463;48.298;11.620;2023-04-04T12:04:39;96897.00;;;5.78;40.89
46724;BME280;32463;48.298;11.620;2023-04-04T12:07:08;96899.06;;;5.62;42.19
46724;BME280;32463;48.298;11.620;2023-04-04T12:09:35;96899.53;;;5.21;42.20
46724;BME280;32463;48.298;11.620;2023-04-04T12:12:02;96892.28;;;4.67;42.69
46724;BME280;32463;48.298;11.620;2023-04-04T12:14:31;96903.22;;;4.58;43.60
46724;BME280;32463;48.298;11.620;2023-04-04T12:16:58;96898.75;;;4.36;44.27
46724;BME280;32463;48.298;11.620;2023-04-04T12:19:26;96896.59;;;4.30;44.14
46724;BME280;32463;48.298;11.620;2023-04-04T12:21:55;96897.56;;;4.16;44.32
46724;BME280;32463;48.298;11.620;2023-04-04T12:24:21;96894.22;;;4.39;44.17
46724;BME280;32463;48.298;11.620;2023-04-04T12:26:50;96900.91;;;4.42;43.65
46724;BME280;32463;48.298;11.620;2023-04-04T12:29:19;96891.72;;;4.98;43.58
46724;BME280;32463;48.298;11.620;2023-04-04T12:31:48;96892.63;;;5.56;41.84
46724;BME280;32463;48.298;11.620;2023-04-04T12:34:28;96886.09;;;5.17;42.82
46724;BME280;32463;48.298;11.620;2023-04-04T12:36:55;96889.09;;;5.46;41.89
46724;BME280;32463;48.298;11.620;2023-04-04T12:39:25;96894.53;;;5.30;42.64
46724;BME280;32463;48.298;11.620;2023-04-04T12:42:02;96872.59;;;5.02;42.76
46724;BME280;32463;48.298;11.620;2023-04-04T12:46:58;96875.94;;;7.15;39.36
46724;BME280;32463;48.298;11.620;2023-04-04T12:52:05;96876.38;;;7.83;38.67
46724;BME280;32463;48.298;11.620;2023-04-04T12:54:38;96881.91;;;8.79;36.50
46724;BME280;32463;48.298;11.620;2023-04-04T12:57:05;96882.94;;;8.57;38.35
46724;BME280;32463;48.298;11.620;2023-04-04T12:59:35;96871.41;;;7.07;38.59
46724;BME280;32463;48.298;11.620;2023-04-04T13:02:07;96887.16;;;6.50;39.92
46724;BME280;32463;48.298;11.620;2023-04-04T13:04:34;96893.44;;;5.57;40.77
46724;BME280;32463;48.298;11.620;2023-04-04T13:07:02;96889.66;;;5.38;40.97
46724;BME280;32463;48.298;11.620;2023-04-04T13:09:29;96877.31;;;6.55;40.88
46724;BME280;32463;48.298;11.620;2023-04-04T13:12:03;96872.09;;;7.09;38.25
46724;BME280;32463;48.298;11.620;2023-04-04T13:17:22;96865.84;;;10.82;33.70
46724;BME280;32463;48.298;11.620;2023-04-04T13:19:48;96866.88;;;11.60;33.40
46724;BME280;32463;48.298;11.620;2023-04-04T13:22:15;96855.06;;;11.47;32.56
46724;BME280;32463;48.298;11.620;2023-04-04T13:24:42;96859.06;;;9.89;34.64
46724;BME280;32463;48.298;11.620;2023-04-04T13:27:08;96867.63;;;9.42;36.17
46724;BME280;32463;48.298;11.620;2023-04-04T13:29:35;96846.03;;;8.36;36.04
46724;BME280;32463;48.298;11.620;2023-04-04T13:32:01;96867.88;;;6.76;38.96